createdAt,value
2022-08-30T00:04:07.041Z,93.92
2022-08-30T00:09:15.870Z,93.65001
2022-08-30T00:14:24.580Z,93.46
2022-08-30T00:19:33.203Z,93.94
2022-08-30T00:24:40.906Z,93.99
2022-08-30T00:29:48.462Z,94.22
2022-08-30T00:34:56.219Z,94.46
2022-08-30T00:40:03.411Z,94.69001
2022-08-30T00:45:11.291Z,94.68
2022-08-30T00:50:18.918Z,94.66001
2022-08-30T00:55:27.047Z,94.75
2022-08-30T01:00:35.805Z,94.84
2022-08-30T01:05:43.237Z,94.98
2022-08-30T01:10:50.962Z,94.68
2022-08-30T01:16:01.146Z,94.66001
2022-08-30T01:21:08.462Z,94.5
2022-08-30T01:26:16.137Z,94.32
2022-08-30T01:31:24.235Z,94.53
2022-08-30T01:36:31.577Z,94.62001
2022-08-30T01:41:39.421Z,94.78
2022-08-30T01:46:47.215Z,94.7
2022-08-30T01:51:53.941Z,94.68
2022-08-30T01:57:01.018Z,94.68
2022-08-30T02:02:08.855Z,94.85
2022-08-30T02:07:16.097Z,94.99
2022-08-30T02:12:23.277Z,94.92
2022-08-30T02:17:29.868Z,94.74
2022-08-30T02:22:37.846Z,94.5
2022-08-30T02:27:45.529Z,94.5
2022-08-30T02:32:53.008Z,94.66001
2022-08-30T02:38:01.028Z,94.27
2022-08-30T02:43:09.514Z,94.46
2022-08-30T02:48:17.741Z,94.69001
2022-08-30T02:53:25.282Z,95.2
2022-08-30T02:58:33.177Z,95.76
2022-08-30T03:03:40.510Z,95.66001
2022-08-30T03:08:48.499Z,95.32001
2022-08-30T03:13:56.637Z,95.46
2022-08-30T03:19:04.333Z,95.58001
2022-08-30T03:24:13.231Z,95.58001
2022-08-30T03:29:19.603Z,95.33999
2022-08-30T03:34:28.578Z,95.71
2022-08-30T03:39:36.626Z,96.04
2022-08-30T03:44:43.835Z,96.16
2022-08-30T03:49:51.008Z,96.01001
2022-08-30T03:54:58.166Z,96.11
2022-08-30T04:00:05.528Z,95.88
2022-08-30T04:05:12.569Z,95.73001
2022-08-30T04:10:19.768Z,95.14
2022-08-30T04:15:28.074Z,95.19
2022-08-30T04:20:36.077Z,95.58001
2022-08-30T04:25:43.834Z,95.73001
2022-08-30T04:30:51.285Z,95.9
2022-08-30T04:36:00.723Z,95.62
2022-08-30T04:41:07.108Z,95.66001
2022-08-30T04:46:13.981Z,95.58001
2022-08-30T04:51:20.542Z,95.4
2022-08-30T04:56:28.697Z,95.35
2022-08-30T05:01:35.597Z,95.1
2022-08-30T05:06:43.398Z,94.08
2022-08-30T05:11:51.570Z,92.49
2022-08-30T05:17:07.580Z,90.57
2022-08-30T05:22:14.633Z,88.99
2022-08-30T05:27:21.835Z,86.74
2022-08-30T05:32:30.812Z,84.46
2022-08-30T05:37:37.527Z,82.2
2022-08-30T05:42:46.437Z,81.33
2022-08-30T05:47:54.321Z,79.8
2022-08-30T05:53:01.684Z,77.56
2022-08-30T05:58:08.856Z,76.44001
2022-08-30T06:03:17.181Z,75.28
2022-08-30T06:08:25.852Z,72.94
2022-08-30T06:13:33.693Z,70.16
2022-08-30T06:18:40.887Z,65.41
2022-08-30T06:23:48.087Z,63.04
2022-08-30T06:28:56.964Z,61.15
2022-08-30T06:34:04.658Z,59.02
2022-08-30T06:39:11.946Z,57.78
2022-08-30T06:44:18.782Z,56.34
2022-08-30T06:49:25.981Z,56.68
2022-08-30T06:54:33.819Z,59.28
2022-08-30T06:59:40.999Z,61.25
2022-08-30T07:04:48.856Z,65.22
2022-08-30T07:09:56.658Z,66.21
2022-08-30T07:15:04.567Z,65.84
2022-08-30T07:20:12.121Z,63.34
2022-08-30T07:25:19.613Z,54.14
2022-08-30T07:30:26.166Z,52.21
2022-08-30T07:35:33.968Z,55.88
2022-08-30T07:40:51.326Z,54.11
2022-08-30T07:45:58.644Z,52.76
2022-08-30T07:51:06.741Z,55.36
2022-08-30T07:56:14.901Z,54.65
2022-08-30T08:01:22.382Z,51.91
2022-08-30T08:06:30.289Z,50.97
2022-08-30T08:11:37.819Z,50.8
2022-08-30T08:16:45.018Z,52.65
2022-08-30T08:21:52.220Z,51.13
2022-08-30T08:26:59.416Z,51.74
2022-08-30T08:32:05.982Z,52.0
2022-08-30T08:37:13.822Z,52.46
2022-08-30T08:42:21.386Z,51.85
2022-08-30T08:47:28.886Z,51.08
2022-08-30T08:52:36.576Z,51.27
2022-08-30T08:57:45.049Z,49.25
2022-08-30T09:02:53.264Z,50.08
2022-08-30T09:08:00.221Z,50.64
2022-08-30T09:13:08.135Z,46.71
2022-08-30T09:18:15.461Z,49.48
2022-08-30T09:23:24.131Z,48.48
2022-08-30T09:28:31.626Z,48.49
2022-08-30T09:33:38.777Z,46.82
2022-08-30T09:38:46.819Z,47.05
2022-08-30T09:44:03.428Z,45.7
2022-08-30T09:49:10.618Z,45.44
2022-08-30T09:54:18.768Z,45.42
2022-08-30T09:59:25.861Z,46.32
2022-08-30T10:04:33.633Z,43.32
2022-08-30T10:09:41.925Z,44.61
2022-08-30T10:14:49.368Z,44.52
2022-08-30T10:19:56.981Z,45.58
2022-08-30T10:25:03.881Z,44.37
2022-08-30T10:30:11.419Z,43.43
2022-08-30T10:35:18.699Z,43.11
2022-08-30T10:40:25.823Z,44.06
2022-08-30T10:45:33.636Z,41.7
2022-08-30T10:50:41.082Z,41.89
2022-08-30T10:55:48.836Z,40.63
2022-08-30T11:00:56.602Z,41.13
2022-08-30T11:06:03.100Z,41.6
2022-08-30T11:11:10.307Z,43.7
2022-08-30T11:16:16.858Z,43.89
2022-08-30T11:21:24.139Z,42.62
2022-08-30T11:26:32.536Z,44.52
2022-08-30T11:31:40.412Z,42.12
2022-08-30T11:36:47.613Z,43.99
2022-08-30T11:41:54.926Z,44.86
2022-08-30T11:47:02.679Z,44.33
2022-08-30T11:52:10.190Z,44.14
2022-08-30T11:57:18.324Z,42.74
2022-08-30T12:02:25.641Z,42.28
2022-08-30T12:07:32.885Z,44.52
2022-08-30T12:12:40.536Z,43.64
2022-08-30T12:17:48.378Z,44.38
2022-08-30T12:22:56.863Z,44.09
2022-08-30T12:28:04.030Z,45.52
2022-08-30T12:33:12.050Z,46.76
2022-08-30T12:38:19.743Z,45.59
2022-08-30T12:43:26.737Z,45.88
2022-08-30T12:48:33.758Z,46.07
2022-08-30T12:53:40.766Z,46.72
2022-08-30T12:58:47.896Z,47.9
2022-08-30T13:03:55.771Z,46.55
2022-08-30T13:09:13.074Z,46.9
2022-08-30T13:14:21.758Z,46.06
2022-08-30T13:19:28.220Z,44.67
2022-08-30T13:24:35.917Z,45.59
2022-08-30T13:29:43.912Z,46.37
2022-08-30T13:34:51.975Z,45.02
2022-08-30T13:39:59.754Z,44.5
2022-08-30T13:45:07.100Z,45.61
2022-08-30T13:50:13.725Z,45.16
2022-08-30T13:55:22.969Z,44.94
2022-08-30T14:00:31.584Z,43.91
2022-08-30T14:05:39.146Z,43.71
2022-08-30T14:10:47.263Z,41.96
2022-08-30T14:15:55.221Z,41.29
2022-08-30T14:21:01.658Z,41.37
2022-08-30T14:26:08.650Z,40.97
2022-08-30T14:31:16.121Z,41.52
2022-08-30T14:36:24.220Z,43.25
2022-08-30T14:41:31.083Z,42.43
2022-08-30T14:46:39.495Z,41.56
2022-08-30T14:51:46.727Z,43.22
2022-08-30T14:56:54.647Z,42.62
2022-08-30T15:02:02.943Z,45.02
2022-08-30T15:07:10.942Z,45.2
2022-08-30T15:12:17.533Z,45.0
2022-08-30T15:17:25.841Z,46.2
2022-08-30T15:22:33.235Z,47.24
2022-08-30T15:27:41.003Z,48.0
2022-08-30T15:32:48.217Z,47.34
2022-08-30T15:37:55.818Z,50.05
2022-08-30T15:43:02.789Z,49.45
2022-08-30T15:48:09.759Z,49.68
2022-08-30T15:53:16.376Z,52.2
2022-08-30T15:58:22.948Z,51.44
2022-08-30T16:03:31.930Z,52.12
2022-08-30T16:08:41.782Z,53.13
2022-08-30T16:13:50.215Z,52.2
2022-08-30T16:18:57.305Z,51.2
2022-08-30T16:24:03.422Z,53.57
2022-08-30T16:29:10.860Z,53.91
2022-08-30T16:34:19.304Z,54.72
2022-08-30T16:39:26.488Z,57.9
2022-08-30T16:44:33.499Z,59.32
2022-08-30T16:49:40.461Z,60.99
2022-08-30T16:54:47.836Z,62.52
2022-08-30T16:59:55.326Z,62.95
2022-08-30T17:05:02.439Z,64.23
2022-08-30T17:10:10.634Z,64.96
2022-08-30T17:15:18.023Z,66.44001
2022-08-30T17:20:25.216Z,67.23001
2022-08-30T17:25:32.384Z,67.52
2022-08-30T17:30:39.548Z,68.23
2022-08-30T17:35:46.744Z,68.78
2022-08-30T17:40:54.281Z,69.94
2022-08-30T17:46:02.093Z,70.22
2022-08-30T17:51:10.176Z,72.37
2022-08-30T17:56:17.536Z,74.58
2022-08-30T18:01:24.730Z,75.48
2022-08-30T18:06:31.962Z,75.7
2022-08-30T18:11:39.135Z,75.2
2022-08-30T18:16:45.660Z,76.78
2022-08-30T18:21:53.706Z,76.76
2022-08-30T18:27:01.239Z,77.72
2022-08-30T18:32:08.974Z,78.54
2022-08-30T18:37:16.996Z,79.33
2022-08-30T18:42:24.013Z,80.80001
2022-08-30T18:47:31.711Z,81.92
2022-08-30T18:52:40.215Z,81.81
2022-08-30T18:57:49.566Z,82.2
2022-08-30T19:02:56.830Z,81.6
2022-08-30T19:08:04.335Z,81.99
2022-08-30T19:13:11.940Z,82.83
2022-08-30T19:18:19.151Z,83.62
2022-08-30T19:23:26.575Z,84.3
2022-08-30T19:28:33.495Z,85.07
2022-08-30T19:33:40.863Z,84.96
2022-08-30T19:38:48.443Z,85.33
2022-08-30T19:43:56.419Z,85.72001
2022-08-30T19:49:05.217Z,85.6
2022-08-30T19:54:13.278Z,86.90001
2022-08-30T19:59:20.574Z,87.66001
2022-08-30T20:04:28.348Z,87.71
2022-08-30T20:11:06.755Z,87.64
2022-08-30T20:16:12.948Z,87.56
2022-08-30T20:21:20.311Z,87.88
2022-08-30T20:26:28.302Z,88.62
2022-08-30T20:31:43.296Z,88.34
2022-08-30T20:36:50.823Z,88.47
2022-08-30T20:41:58.940Z,88.85
2022-08-30T20:47:06.463Z,89.3
2022-08-30T20:52:14.294Z,89.32
2022-08-30T20:57:23.398Z,88.87
2022-08-30T21:02:31.964Z,89.77
2022-08-30T21:07:40.392Z,90.23001
2022-08-30T21:12:48.311Z,89.93
2022-08-30T21:17:56.247Z,89.71
2022-08-30T21:23:04.697Z,90.29
2022-08-30T21:28:11.775Z,90.26
2022-08-30T21:33:20.259Z,90.53
2022-08-30T21:38:27.870Z,91.09
2022-08-30T21:43:35.930Z,91.06
2022-08-30T21:48:44.069Z,90.96
2022-08-30T21:53:51.044Z,91.06
2022-08-30T21:58:58.786Z,91.35
2022-08-30T22:04:07.486Z,91.58999
2022-08-30T22:09:15.772Z,91.81
2022-08-30T22:14:23.391Z,91.8
2022-08-30T22:19:30.347Z,91.82
2022-08-30T22:24:38.013Z,91.29001
2022-08-30T22:29:47.033Z,91.01001
2022-08-30T22:34:54.681Z,92.38
2022-08-30T22:40:03.256Z,92.65
2022-08-30T22:45:10.656Z,92.62
2022-08-30T22:50:18.129Z,92.16001
2022-08-30T22:55:25.720Z,92.06
2022-08-30T23:00:33.701Z,92.06
2022-08-30T23:05:41.500Z,92.56
2022-08-30T23:10:49.442Z,92.85
2022-08-30T23:15:57.606Z,92.97
2022-08-30T23:21:12.545Z,92.86
2022-08-30T23:26:19.097Z,93.44001
2022-08-30T23:31:26.256Z,93.28
2022-08-30T23:36:33.568Z,92.76999
2022-08-30T23:41:41.995Z,93.6
2022-08-30T23:46:50.392Z,93.74
2022-08-30T23:51:58.438Z,93.36
2022-08-30T23:57:05.547Z,93.35
